sensor_id;sensor_type;location;lat;lon;timestamp;P1;durP1;ratioP1;P2;durP2;ratioP2
71360;SDS011;59166;48.908;1.870;2022-08-01T00:00:21;4.15;;;1.50;;
71360;SDS011;59166;48.908;1.870;2022-08-01T00:05:22;5.45;;;1.80;;
71360;SDS011;59166;48.908;1.870;2022-08-01T00:10:25;3.63;;;1.40;;
71360;SDS011;59166;48.908;1.870;2022-08-01T00:15:25;5.00;;;1.65;;
71360;SDS011;59166;48.908;1.870;2022-08-01T00:20:26;3.97;;;1.60;;
71360;SDS011;59166;48.908;1.870;2022-08-01T00:25:28;3.78;;;1.48;;
71360;SDS011;59166;48.908;1.870;2022-08-01T00:30:30;4.53;;;1.57;;
71360;SDS011;59166;48.908;1.870;2022-08-01T00:35:30;3.93;;;1.60;;
71360;SDS011;59166;48.908;1.870;2022-08-01T00:40:33;5.03;;;1.73;;
71360;SDS011;59166;48.908;1.870;2022-08-01T00:45:33;6.37;;;1.60;;
71360;SDS011;59166;48.908;1.870;2022-08-01T00:50:34;4.05;;;1.63;;
71360;SDS011;59166;48.908;1.870;2022-08-01T00:55:36;4.37;;;1.50;;
71360;SDS011;59166;48.908;1.870;2022-08-01T01:00:37;4.30;;;1.60;;
71360;SDS011;59166;48.908;1.870;2022-08-01T01:05:39;4.33;;;1.63;;
71360;SDS011;59166;48.908;1.870;2022-08-01T01:10:51;4.28;;;1.60;;
71360;SDS011;59166;48.908;1.870;2022-08-01T01:15:58;5.13;;;1.70;;
71360;SDS011;59166;48.908;1.870;2022-08-01T01:21:02;4.90;;;1.70;;
71360;SDS011;59166;48.908;1.870;2022-08-01T01:26:16;5.78;;;1.80;;
71360;SDS011;59166;48.908;1.870;2022-08-01T01:31:24;4.85;;;1.70;;
71360;SDS011;59166;48.908;1.870;2022-08-01T01:36:27;4.27;;;1.60;;
71360;SDS011;59166;48.908;1.870;2022-08-01T01:41:30;5.35;;;1.83;;
71360;SDS011;59166;48.908;1.870;2022-08-01T01:46:33;4.10;;;1.63;;
71360;SDS011;59166;48.908;1.870;2022-08-01T01:51:35;5.40;;;1.80;;
71360;SDS011;59166;48.908;1.870;2022-08-01T01:56:38;4.78;;;1.70;;
71360;SDS011;59166;48.908;1.870;2022-08-01T02:01:42;4.90;;;1.65;;
71360;SDS011;59166;48.908;1.870;2022-08-01T02:06:45;4.20;;;1.60;;
71360;SDS011;59166;48.908;1.870;2022-08-01T02:11:47;4.20;;;1.67;;
71360;SDS011;59166;48.908;1.870;2022-08-01T02:16:50;5.43;;;1.80;;
71360;SDS011;59166;48.908;1.870;2022-08-01T02:21:52;4.63;;;1.70;;
71360;SDS011;59166;48.908;1.870;2022-08-01T02:26:56;5.10;;;1.60;;
71360;SDS011;59166;48.908;1.870;2022-08-01T02:32:03;4.97;;;1.50;;
71360;SDS011;59166;48.908;1.870;2022-08-01T02:37:06;4.25;;;1.77;;
71360;SDS011;59166;48.908;1.870;2022-08-01T02:42:09;5.17;;;1.70;;
71360;SDS011;59166;48.908;1.870;2022-08-01T02:47:14;5.50;;;1.67;;
71360;SDS011;59166;48.908;1.870;2022-08-01T02:52:18;5.18;;;1.80;;
71360;SDS011;59166;48.908;1.870;2022-08-01T02:57:21;4.80;;;1.90;;
71360;SDS011;59166;48.908;1.870;2022-08-01T03:02:24;5.70;;;1.80;;
71360;SDS011;59166;48.908;1.870;2022-08-01T03:07:27;5.50;;;1.80;;
71360;SDS011;59166;48.908;1.870;2022-08-01T03:12:29;6.43;;;1.80;;
71360;SDS011;59166;48.908;1.870;2022-08-01T03:17:57;3.70;;;1.50;;
71360;SDS011;59166;48.908;1.870;2022-08-01T03:23:36;5.50;;;1.90;;
71360;SDS011;59166;48.908;1.870;2022-08-01T03:28:51;4.25;;;1.80;;
71360;SDS011;59166;48.908;1.870;2022-08-01T03:34:21;5.20;;;1.60;;
71360;SDS011;59166;48.908;1.870;2022-08-01T03:39:39;5.68;;;1.70;;
71360;SDS011;59166;48.908;1.870;2022-08-01T03:50:16;5.27;;;1.93;;
71360;SDS011;59166;48.908;1.870;2022-08-01T03:55:30;5.13;;;1.70;;
71360;SDS011;59166;48.908;1.870;2022-08-01T04:00:59;4.57;;;1.60;;
71360;SDS011;59166;48.908;1.870;2022-08-01T04:06:12;5.65;;;1.80;;
71360;SDS011;59166;48.908;1.870;2022-08-01T04:11:29;4.77;;;1.80;;
71360;SDS011;59166;48.908;1.870;2022-08-01T04:16:46;4.00;;;1.75;;
71360;SDS011;59166;48.908;1.870;2022-08-01T04:22:11;5.07;;;1.83;;
71360;SDS011;59166;48.908;1.870;2022-08-01T04:27:35;4.77;;;1.60;;
71360;SDS011;59166;48.908;1.870;2022-08-01T04:33:01;8.30;;;1.77;;
71360;SDS011;59166;48.908;1.870;2022-08-01T04:49:11;5.17;;;1.87;;
71360;SDS011;59166;48.908;1.870;2022-08-01T04:54:50;5.50;;;1.80;;
71360;SDS011;59166;48.908;1.870;2022-08-01T04:59:46;6.53;;;2.00;;
71360;SDS011;59166;48.908;1.870;2022-08-01T05:04:57;5.30;;;1.87;;
71360;SDS011;59166;48.908;1.870;2022-08-01T05:10:05;5.07;;;1.98;;
71360;SDS011;59166;48.908;1.870;2022-08-01T05:15:15;6.50;;;2.20;;
71360;SDS011;59166;48.908;1.870;2022-08-01T05:26:04;4.35;;;1.80;;
71360;SDS011;59166;48.908;1.870;2022-08-01T05:31:22;6.00;;;1.95;;
71360;SDS011;59166;48.908;1.870;2022-08-01T05:42:04;5.27;;;1.90;;
71360;SDS011;59166;48.908;1.870;2022-08-01T05:47:14;4.82;;;1.80;;
71360;SDS011;59166;48.908;1.870;2022-08-01T05:52:19;5.22;;;1.83;;
71360;SDS011;59166;48.908;1.870;2022-08-01T05:57:40;6.37;;;2.03;;
71360;SDS011;59166;48.908;1.870;2022-08-01T06:02:53;6.25;;;2.00;;
71360;SDS011;59166;48.908;1.870;2022-08-01T06:08:21;6.63;;;2.10;;
71360;SDS011;59166;48.908;1.870;2022-08-01T06:13:42;5.63;;;1.93;;
71360;SDS011;59166;48.908;1.870;2022-08-01T06:19:07;5.32;;;2.00;;
71360;SDS011;59166;48.908;1.870;2022-08-01T06:24:23;5.70;;;1.95;;
71360;SDS011;59166;48.908;1.870;2022-08-01T06:29:25;5.80;;;1.93;;
71360;SDS011;59166;48.908;1.870;2022-08-01T06:34:40;5.10;;;2.00;;
71360;SDS011;59166;48.908;1.870;2022-08-01T06:40:02;6.35;;;2.08;;
71360;SDS011;59166;48.908;1.870;2022-08-01T06:45:12;5.10;;;1.92;;
71360;SDS011;59166;48.908;1.870;2022-08-01T06:50:33;5.27;;;1.90;;
71360;SDS011;59166;48.908;1.870;2022-08-01T06:55:40;6.30;;;1.77;;
71360;SDS011;59166;48.908;1.870;2022-08-01T07:00:51;5.47;;;1.90;;
71360;SDS011;59166;48.908;1.870;2022-08-01T07:06:02;5.30;;;2.00;;
71360;SDS011;59166;48.908;1.870;2022-08-01T07:11:26;5.53;;;2.10;;
71360;SDS011;59166;48.908;1.870;2022-08-01T07:16:33;5.57;;;2.20;;
71360;SDS011;59166;48.908;1.870;2022-08-01T07:21:39;5.13;;;2.00;;
71360;SDS011;59166;48.908;1.870;2022-08-01T07:26:40;6.23;;;2.40;;
71360;SDS011;59166;48.908;1.870;2022-08-01T07:31:45;6.75;;;2.60;;
71360;SDS011;59166;48.908;1.870;2022-08-01T07:37:12;6.57;;;2.63;;
71360;SDS011;59166;48.908;1.870;2022-08-01T07:42:16;8.03;;;2.70;;
71360;SDS011;59166;48.908;1.870;2022-08-01T07:47:33;7.22;;;3.00;;
71360;SDS011;59166;48.908;1.870;2022-08-01T07:52:57;6.88;;;2.55;;
71360;SDS011;59166;48.908;1.870;2022-08-01T07:57:58;7.67;;;2.60;;
71360;SDS011;59166;48.908;1.870;2022-08-01T08:03:05;6.63;;;2.38;;
71360;SDS011;59166;48.908;1.870;2022-08-01T08:08:14;6.60;;;2.80;;
71360;SDS011;59166;48.908;1.870;2022-08-01T08:13:24;8.17;;;2.90;;
71360;SDS011;59166;48.908;1.870;2022-08-01T08:18:35;7.27;;;2.80;;
71360;SDS011;59166;48.908;1.870;2022-08-01T08:23:53;7.50;;;2.75;;
71360;SDS011;59166;48.908;1.870;2022-08-01T08:28:54;9.77;;;3.33;;
71360;SDS011;59166;48.908;1.870;2022-08-01T08:33:55;7.27;;;2.67;;
71360;SDS011;59166;48.908;1.870;2022-08-01T08:38:59;8.18;;;3.13;;
71360;SDS011;59166;48.908;1.870;2022-08-01T08:44:00;6.90;;;2.90;;
71360;SDS011;59166;48.908;1.870;2022-08-01T08:49:13;6.07;;;2.77;;
71360;SDS011;59166;48.908;1.870;2022-08-01T09:00:11;6.93;;;2.60;;
71360;SDS011;59166;48.908;1.870;2022-08-01T09:05:14;6.33;;;2.50;;
71360;SDS011;59166;48.908;1.870;2022-08-01T09:10:25;6.28;;;2.80;;
71360;SDS011;59166;48.908;1.870;2022-08-01T09:15:29;6.50;;;2.70;;
71360;SDS011;59166;48.908;1.870;2022-08-01T09:20:38;6.50;;;2.83;;
71360;SDS011;59166;48.908;1.870;2022-08-01T09:25:51;6.27;;;2.80;;
71360;SDS011;59166;48.908;1.870;2022-08-01T09:30:52;5.88;;;2.60;;
71360;SDS011;59166;48.908;1.870;2022-08-01T09:35:53;5.93;;;2.70;;
71360;SDS011;59166;48.908;1.870;2022-08-01T09:40:57;6.30;;;2.70;;
71360;SDS011;59166;48.908;1.870;2022-08-01T09:45:59;8.30;;;2.80;;
71360;SDS011;59166;48.908;1.870;2022-08-01T09:51:05;5.78;;;2.70;;
71360;SDS011;59166;48.908;1.870;2022-08-01T09:56:11;6.07;;;2.42;;
71360;SDS011;59166;48.908;1.870;2022-08-01T10:01:12;5.90;;;2.42;;
71360;SDS011;59166;48.908;1.870;2022-08-01T10:06:18;5.80;;;2.60;;
71360;SDS011;59166;48.908;1.870;2022-08-01T10:11:21;6.10;;;2.50;;
71360;SDS011;59166;48.908;1.870;2022-08-01T10:16:23;6.57;;;2.50;;
71360;SDS011;59166;48.908;1.870;2022-08-01T10:21:24;5.30;;;2.20;;
71360;SDS011;59166;48.908;1.870;2022-08-01T10:26:29;5.57;;;2.40;;
71360;SDS011;59166;48.908;1.870;2022-08-01T10:31:33;5.07;;;2.28;;
71360;SDS011;59166;48.908;1.870;2022-08-01T10:36:34;5.70;;;2.30;;
71360;SDS011;59166;48.908;1.870;2022-08-01T10:41:36;4.72;;;2.10;;
71360;SDS011;59166;48.908;1.870;2022-08-01T10:46:39;7.40;;;2.50;;
71360;SDS011;59166;48.908;1.870;2022-08-01T10:51:42;7.33;;;3.50;;
71360;SDS011;59166;48.908;1.870;2022-08-01T10:56:46;7.00;;;3.15;;
71360;SDS011;59166;48.908;1.870;2022-08-01T11:01:55;6.82;;;2.88;;
71360;SDS011;59166;48.908;1.870;2022-08-01T11:07:02;7.63;;;2.80;;
71360;SDS011;59166;48.908;1.870;2022-08-01T11:12:07;6.53;;;3.05;;
71360;SDS011;59166;48.908;1.870;2022-08-01T11:22:36;6.27;;;2.70;;
71360;SDS011;59166;48.908;1.870;2022-08-01T11:28:25;6.82;;;2.90;;
71360;SDS011;59166;48.908;1.870;2022-08-01T11:38:49;6.00;;;2.58;;
71360;SDS011;59166;48.908;1.870;2022-08-01T11:44:28;6.60;;;3.00;;
71360;SDS011;59166;48.908;1.870;2022-08-01T11:49:48;6.43;;;2.85;;
71360;SDS011;59166;48.908;1.870;2022-08-01T11:54:50;6.40;;;2.90;;
71360;SDS011;59166;48.908;1.870;2022-08-01T11:59:54;6.40;;;2.80;;
71360;SDS011;59166;48.908;1.870;2022-08-01T12:04:56;7.78;;;2.80;;
71360;SDS011;59166;48.908;1.870;2022-08-01T12:10:00;7.47;;;2.80;;
71360;SDS011;59166;48.908;1.870;2022-08-01T12:15:06;6.30;;;2.90;;
71360;SDS011;59166;48.908;1.870;2022-08-01T12:20:09;7.55;;;3.20;;
71360;SDS011;59166;48.908;1.870;2022-08-01T12:25:11;6.68;;;3.10;;
71360;SDS011;59166;48.908;1.870;2022-08-01T12:30:15;7.47;;;2.97;;
71360;SDS011;59166;48.908;1.870;2022-08-01T12:35:17;6.57;;;3.30;;
71360;SDS011;59166;48.908;1.870;2022-08-01T12:40:19;6.03;;;2.90;;
71360;SDS011;59166;48.908;1.870;2022-08-01T12:45:24;6.30;;;2.70;;
71360;SDS011;59166;48.908;1.870;2022-08-01T12:50:27;5.70;;;2.50;;
71360;SDS011;59166;48.908;1.870;2022-08-01T12:55:29;5.70;;;2.47;;
71360;SDS011;59166;48.908;1.870;2022-08-01T13:00:31;5.30;;;2.30;;
71360;SDS011;59166;48.908;1.870;2022-08-01T13:05:41;4.97;;;2.10;;
71360;SDS011;59166;48.908;1.870;2022-08-01T13:10:43;5.75;;;2.10;;
71360;SDS011;59166;48.908;1.870;2022-08-01T13:15:45;5.43;;;2.10;;
71360;SDS011;59166;48.908;1.870;2022-08-01T13:20:46;4.50;;;2.08;;
71360;SDS011;59166;48.908;1.870;2022-08-01T13:25:51;4.65;;;2.10;;
71360;SDS011;59166;48.908;1.870;2022-08-01T13:30:55;4.77;;;2.17;;
71360;SDS011;59166;48.908;1.870;2022-08-01T13:35:58;5.15;;;2.00;;
71360;SDS011;59166;48.908;1.870;2022-08-01T13:40:58;4.90;;;1.93;;
71360;SDS011;59166;48.908;1.870;2022-08-01T13:46:01;5.57;;;2.05;;
71360;SDS011;59166;48.908;1.870;2022-08-01T13:51:01;4.27;;;1.90;;
71360;SDS011;59166;48.908;1.870;2022-08-01T13:56:02;5.25;;;1.70;;
71360;SDS011;59166;48.908;1.870;2022-08-01T14:01:05;4.33;;;1.70;;
71360;SDS011;59166;48.908;1.870;2022-08-01T14:06:06;5.63;;;1.80;;
71360;SDS011;59166;48.908;1.870;2022-08-01T14:11:07;4.35;;;1.70;;
71360;SDS011;59166;48.908;1.870;2022-08-01T14:16:09;4.37;;;1.80;;
71360;SDS011;59166;48.908;1.870;2022-08-01T14:21:10;4.55;;;1.80;;
71360;SDS011;59166;48.908;1.870;2022-08-01T14:26:11;5.23;;;2.00;;
71360;SDS011;59166;48.908;1.870;2022-08-01T14:31:13;5.07;;;1.90;;
71360;SDS011;59166;48.908;1.870;2022-08-01T14:36:13;4.73;;;1.70;;
71360;SDS011;59166;48.908;1.870;2022-08-01T14:41:14;7.05;;;1.92;;
71360;SDS011;59166;48.908;1.870;2022-08-01T14:46:16;5.63;;;1.80;;
71360;SDS011;59166;48.908;1.870;2022-08-01T14:51:17;4.53;;;1.80;;
71360;SDS011;59166;48.908;1.870;2022-08-01T14:56:18;5.28;;;2.13;;
71360;SDS011;59166;48.908;1.870;2022-08-01T15:01:21;5.33;;;2.00;;
71360;SDS011;59166;48.908;1.870;2022-08-01T15:06:21;4.75;;;1.85;;
71360;SDS011;59166;48.908;1.870;2022-08-01T15:11:22;5.93;;;1.80;;
71360;SDS011;59166;48.908;1.870;2022-08-01T15:16:24;4.82;;;1.80;;
71360;SDS011;59166;48.908;1.870;2022-08-01T15:21:25;5.30;;;1.98;;
71360;SDS011;59166;48.908;1.870;2022-08-01T15:26:25;5.40;;;1.90;;
71360;SDS011;59166;48.908;1.870;2022-08-01T15:31:28;5.57;;;1.90;;
71360;SDS011;59166;48.908;1.870;2022-08-01T15:36:28;5.38;;;1.90;;
71360;SDS011;59166;48.908;1.870;2022-08-01T15:41:29;4.87;;;1.70;;
71360;SDS011;59166;48.908;1.870;2022-08-01T15:46:31;4.35;;;1.70;;
71360;SDS011;59166;48.908;1.870;2022-08-01T15:51:32;4.23;;;1.70;;
71360;SDS011;59166;48.908;1.870;2022-08-01T15:56:33;5.85;;;1.77;;
71360;SDS011;59166;48.908;1.870;2022-08-01T16:01:35;4.07;;;1.80;;
71360;SDS011;59166;48.908;1.870;2022-08-01T16:06:37;4.68;;;1.90;;
71360;SDS011;59166;48.908;1.870;2022-08-01T16:11:40;5.45;;;1.80;;
71360;SDS011;59166;48.908;1.870;2022-08-01T16:16:43;3.53;;;1.60;;
71360;SDS011;59166;48.908;1.870;2022-08-01T16:21:44;6.70;;;2.10;;
71360;SDS011;59166;48.908;1.870;2022-08-01T16:26:45;4.18;;;1.70;;
71360;SDS011;59166;48.908;1.870;2022-08-01T16:31:47;4.17;;;1.90;;
71360;SDS011;59166;48.908;1.870;2022-08-01T16:36:48;5.35;;;2.00;;
71360;SDS011;59166;48.908;1.870;2022-08-01T16:41:55;4.28;;;1.85;;
71360;SDS011;59166;48.908;1.870;2022-08-01T16:46:57;5.47;;;1.70;;
71360;SDS011;59166;48.908;1.870;2022-08-01T16:51:58;4.60;;;1.77;;
71360;SDS011;59166;48.908;1.870;2022-08-01T16:56:59;4.60;;;1.90;;
71360;SDS011;59166;48.908;1.870;2022-08-01T17:02:01;4.10;;;1.70;;
71360;SDS011;59166;48.908;1.870;2022-08-01T17:07:02;5.70;;;1.90;;
71360;SDS011;59166;48.908;1.870;2022-08-01T17:12:03;4.18;;;1.80;;
71360;SDS011;59166;48.908;1.870;2022-08-01T17:17:08;3.80;;;1.77;;
71360;SDS011;59166;48.908;1.870;2022-08-01T17:22:09;4.45;;;1.90;;
71360;SDS011;59166;48.908;1.870;2022-08-01T17:27:10;4.97;;;1.63;;
71360;SDS011;59166;48.908;1.870;2022-08-01T17:32:12;4.38;;;1.77;;
71360;SDS011;59166;48.908;1.870;2022-08-01T17:37:13;5.00;;;1.67;;
71360;SDS011;59166;48.908;1.870;2022-08-01T17:42:14;5.33;;;1.90;;
71360;SDS011;59166;48.908;1.870;2022-08-01T17:47:16;4.43;;;1.83;;
71360;SDS011;59166;48.908;1.870;2022-08-01T17:52:17;5.10;;;2.00;;
71360;SDS011;59166;48.908;1.870;2022-08-01T17:57:18;4.25;;;1.83;;
71360;SDS011;59166;48.908;1.870;2022-08-01T18:02:20;4.60;;;1.77;;
71360;SDS011;59166;48.908;1.870;2022-08-01T18:07:21;4.60;;;1.92;;
71360;SDS011;59166;48.908;1.870;2022-08-01T18:12:22;6.07;;;1.90;;
71360;SDS011;59166;48.908;1.870;2022-08-01T18:17:25;5.80;;;2.07;;
71360;SDS011;59166;48.908;1.870;2022-08-01T18:22:25;5.72;;;2.10;;
71360;SDS011;59166;48.908;1.870;2022-08-01T18:27:26;5.40;;;1.90;;
71360;SDS011;59166;48.908;1.870;2022-08-01T18:32:28;6.20;;;2.00;;
71360;SDS011;59166;48.908;1.870;2022-08-01T18:37:29;4.67;;;2.00;;
71360;SDS011;59166;48.908;1.870;2022-08-01T18:42:30;5.53;;;2.10;;
71360;SDS011;59166;48.908;1.870;2022-08-01T18:47:32;6.80;;;2.17;;
71360;SDS011;59166;48.908;1.870;2022-08-01T18:52:33;5.10;;;2.00;;
71360;SDS011;59166;48.908;1.870;2022-08-01T18:57:34;4.93;;;2.10;;
71360;SDS011;59166;48.908;1.870;2022-08-01T19:02:36;6.07;;;2.00;;
71360;SDS011;59166;48.908;1.870;2022-08-01T19:07:37;6.97;;;2.30;;
71360;SDS011;59166;48.908;1.870;2022-08-01T19:12:37;8.90;;;2.28;;
71360;SDS011;59166;48.908;1.870;2022-08-01T19:17:40;8.20;;;2.30;;
71360;SDS011;59166;48.908;1.870;2022-08-01T19:22:40;6.10;;;2.40;;
71360;SDS011;59166;48.908;1.870;2022-08-01T19:27:41;7.77;;;2.40;;
71360;SDS011;59166;48.908;1.870;2022-08-01T19:32:46;5.22;;;2.13;;
71360;SDS011;59166;48.908;1.870;2022-08-01T19:37:47;5.47;;;2.20;;
71360;SDS011;59166;48.908;1.870;2022-08-01T19:42:48;6.27;;;2.23;;
71360;SDS011;59166;48.908;1.870;2022-08-01T19:47:50;5.33;;;2.37;;
71360;SDS011;59166;48.908;1.870;2022-08-01T19:52:51;6.97;;;2.40;;
71360;SDS011;59166;48.908;1.870;2022-08-01T19:57:54;8.20;;;2.50;;
71360;SDS011;59166;48.908;1.870;2022-08-01T20:02:57;7.22;;;2.50;;
71360;SDS011;59166;48.908;1.870;2022-08-01T20:07:59;5.50;;;2.30;;
71360;SDS011;59166;48.908;1.870;2022-08-01T20:13:00;6.15;;;2.53;;
71360;SDS011;59166;48.908;1.870;2022-08-01T20:18:03;6.73;;;2.60;;
71360;SDS011;59166;48.908;1.870;2022-08-01T20:23:05;6.82;;;2.50;;
71360;SDS011;59166;48.908;1.870;2022-08-01T20:28:10;8.23;;;2.70;;
71360;SDS011;59166;48.908;1.870;2022-08-01T20:33:13;7.60;;;2.63;;
71360;SDS011;59166;48.908;1.870;2022-08-01T20:38:16;7.15;;;2.60;;
71360;SDS011;59166;48.908;1.870;2022-08-01T20:43:19;7.10;;;2.50;;
71360;SDS011;59166;48.908;1.870;2022-08-01T20:48:22;9.50;;;2.50;;
71360;SDS011;59166;48.908;1.870;2022-08-01T20:53:25;6.75;;;2.40;;
71360;SDS011;59166;48.908;1.870;2022-08-01T20:58:26;5.70;;;2.40;;
71360;SDS011;59166;48.908;1.870;2022-08-01T21:03:38;6.65;;;2.40;;
71360;SDS011;59166;48.908;1.870;2022-08-01T21:08:45;7.57;;;2.60;;
71360;SDS011;59166;48.908;1.870;2022-08-01T21:13:46;7.80;;;2.63;;
71360;SDS011;59166;48.908;1.870;2022-08-01T21:18:52;6.90;;;2.60;;
71360;SDS011;59166;48.908;1.870;2022-08-01T21:23:56;8.32;;;2.80;;
71360;SDS011;59166;48.908;1.870;2022-08-01T21:29:04;7.15;;;2.38;;
71360;SDS011;59166;48.908;1.870;2022-08-01T21:34:07;6.73;;;2.40;;
71360;SDS011;59166;48.908;1.870;2022-08-01T21:39:08;6.38;;;2.47;;
71360;SDS011;59166;48.908;1.870;2022-08-01T21:44:09;6.68;;;2.50;;
71360;SDS011;59166;48.908;1.870;2022-08-01T21:49:12;6.73;;;2.40;;
71360;SDS011;59166;48.908;1.870;2022-08-01T21:54:15;6.00;;;2.45;;
71360;SDS011;59166;48.908;1.870;2022-08-01T21:59:36;6.07;;;2.47;;
71360;SDS011;59166;48.908;1.870;2022-08-01T22:04:51;7.33;;;2.47;;
71360;SDS011;59166;48.908;1.870;2022-08-01T22:09:57;7.00;;;2.40;;
71360;SDS011;59166;48.908;1.870;2022-08-01T22:15:04;6.55;;;2.33;;
71360;SDS011;59166;48.908;1.870;2022-08-01T22:20:08;8.05;;;2.60;;
71360;SDS011;59166;48.908;1.870;2022-08-01T22:25:09;6.30;;;2.33;;
71360;SDS011;59166;48.908;1.870;2022-08-01T22:30:11;10.15;;;2.72;;
71360;SDS011;59166;48.908;1.870;2022-08-01T22:35:15;6.63;;;2.30;;
71360;SDS011;59166;48.908;1.870;2022-08-01T22:40:16;5.93;;;2.40;;
71360;SDS011;59166;48.908;1.870;2022-08-01T22:45:20;6.43;;;2.70;;
71360;SDS011;59166;48.908;1.870;2022-08-01T22:50:26;6.10;;;2.60;;
71360;SDS011;59166;48.908;1.870;2022-08-01T22:55:32;7.28;;;2.50;;
71360;SDS011;59166;48.908;1.870;2022-08-01T23:00:36;6.53;;;2.63;;
71360;SDS011;59166;48.908;1.870;2022-08-01T23:05:40;7.37;;;2.53;;
71360;SDS011;59166;48.908;1.870;2022-08-01T23:10:45;6.93;;;2.70;;
71360;SDS011;59166;48.908;1.870;2022-08-01T23:15:46;6.22;;;2.60;;
71360;SDS011;59166;48.908;1.870;2022-08-01T23:20:51;6.38;;;2.45;;
71360;SDS011;59166;48.908;1.870;2022-08-01T23:25:56;6.47;;;2.67;;
71360;SDS011;59166;48.908;1.870;2022-08-01T23:30:58;5.88;;;2.53;;
71360;SDS011;59166;48.908;1.870;2022-08-01T23:36:02;7.43;;;2.45;;
71360;SDS011;59166;48.908;1.870;2022-08-01T23:41:03;6.67;;;2.73;;
71360;SDS011;59166;48.908;1.870;2022-08-01T23:46:03;6.75;;;2.40;;
71360;SDS011;59166;48.908;1.870;2022-08-01T23:51:06;7.50;;;2.50;;
71360;SDS011;59166;48.908;1.870;2022-08-01T23:56:06;6.32;;;2.33;;
